Accueil
METAR-TAF:

METAR-TAF

Aéroports :

Aéroport de Liège

Liège, Belgique

latitude: 50-39N, longitude: 005-27E, altitude: 186 m

Observation

Le bulletin a été fait il y a 43 minutes, à 12:20 UTC
Vent 6 kt de ouest, variant entre sud-ouest et nord
Température 22°C
Humidité 41%
Pression 1033 hPa
Visibilité 10 km ou plus
pas de nuages en-dessous de 1500 mètres et pas de cumulonimbus.

METAR: EBLG 271220Z 28006KT 230V360 CAVOK 22/08 Q1033 NOSIG

Heure: 15:03 (13:03 UTC)

Prévision

Le bulletin a été fait il y a 2 heures et 3 minutes, à 11:00 UTC
Prévision valable du 27 à 12 UTC au 28 à 18 UTC
Vent 5 kt de nord/nord-ouest
Visibilité 10 km ou plus
pas de nuages en-dessous de 1500 mètres et pas de cumulonimbus.
Evoluant progressivement
du 28 à 04 UTC au 28 à 06 UTC
Vent 10 kt de est/nord-est

TAF: EBLG 271100Z 2712/2818 34005KT CAVOK BECMG 2804/2806 06010KT

Observations et prévisions météorologiques de plus de 4000 aéroports (messages METAR et TAF).

Les stations disponibles sont représentées par des disques jaunes et rouges sur la carte.

Passer la souris dessus pour voir le nom de la station.

Cliquer dessus pour voir les observations et prévisions météorologiques.

Pour changer de carte: cliquez sur les boutons verts avec une croix noire pour zoomer, sur le bouton vert avec un tiret pour effectuer un zoom arrière, ou sur les flèches vertes pour les cartes adjacentes.


METAR-TAF: